sensor_id;sensor_type;location;lat;lon;timestamp;pressure;altitude;pressure_sealevel;temperature
8227;BMP180;4154;48.810;9.012;2023-08-08T00:01:26;97249.00;;;12.60
8227;BMP180;4154;48.810;9.012;2023-08-08T00:03:52;97246.00;;;12.60
8227;BMP180;4154;48.810;9.012;2023-08-08T00:06:17;97243.00;;;12.60
8227;BMP180;4154;48.810;9.012;2023-08-08T00:08:43;97239.00;;;12.60
8227;BMP180;4154;48.810;9.012;2023-08-08T00:11:09;97248.00;;;12.60
8227;BMP180;4154;48.810;9.012;2023-08-08T00:13:35;97245.00;;;12.60
8227;BMP180;4154;48.810;9.012;2023-08-08T00:16:00;97254.00;;;12.60
8227;BMP180;4154;48.810;9.012;2023-08-08T00:18:26;97259.00;;;12.70
8227;BMP180;4154;48.810;9.012;2023-08-08T00:20:52;97255.00;;;12.70
8227;BMP180;4154;48.810;9.012;2023-08-08T00:23:18;97255.00;;;12.70
8227;BMP180;4154;48.810;9.012;2023-08-08T00:25:44;97255.00;;;12.70
8227;BMP180;4154;48.810;9.012;2023-08-08T00:28:15;97243.00;;;12.80
8227;BMP180;4154;48.810;9.012;2023-08-08T00:30:42;97260.00;;;12.80
8227;BMP180;4154;48.810;9.012;2023-08-08T00:33:07;97253.00;;;12.80
8227;BMP180;4154;48.810;9.012;2023-08-08T00:35:34;97253.00;;;12.80
8227;BMP180;4154;48.810;9.012;2023-08-08T00:37:59;97254.00;;;12.90
8227;BMP180;4154;48.810;9.012;2023-08-08T00:40:25;97246.00;;;12.90
8227;BMP180;4154;48.810;9.012;2023-08-08T00:42:51;97247.00;;;12.90
8227;BMP180;4154;48.810;9.012;2023-08-08T00:45:17;97245.00;;;12.90
8227;BMP180;4154;48.810;9.012;2023-08-08T00:47:43;97239.00;;;12.90
8227;BMP180;4154;48.810;9.012;2023-08-08T00:50:10;97240.00;;;13.00
8227;BMP180;4154;48.810;9.012;2023-08-08T00:52:37;97234.00;;;13.00
8227;BMP180;4154;48.810;9.012;2023-08-08T00:55:04;97226.00;;;12.90
8227;BMP180;4154;48.810;9.012;2023-08-08T00:57:30;97228.00;;;13.00
8227;BMP180;4154;48.810;9.012;2023-08-08T00:59:56;97239.00;;;12.90
8227;BMP180;4154;48.810;9.012;2023-08-08T01:02:22;97224.00;;;12.90
8227;BMP180;4154;48.810;9.012;2023-08-08T01:04:48;97227.00;;;12.90
8227;BMP180;4154;48.810;9.012;2023-08-08T01:07:47;97214.00;;;12.90
8227;BMP180;4154;48.810;9.012;2023-08-08T01:10:21;97226.00;;;12.90
8227;BMP180;4154;48.810;9.012;2023-08-08T01:13:02;97217.00;;;12.90
8227;BMP180;4154;48.810;9.012;2023-08-08T01:15:30;97223.00;;;12.90
8227;BMP180;4154;48.810;9.012;2023-08-08T01:18:05;97226.00;;;13.00
8227;BMP180;4154;48.810;9.012;2023-08-08T01:20:32;97219.00;;;13.00
8227;BMP180;4154;48.810;9.012;2023-08-08T01:23:30;97216.00;;;13.00
8227;BMP180;4154;48.810;9.012;2023-08-08T01:25:59;97223.00;;;13.00
8227;BMP180;4154;48.810;9.012;2023-08-08T01:28:26;97216.00;;;13.10
8227;BMP180;4154;48.810;9.012;2023-08-08T01:30:52;97211.00;;;13.10
8227;BMP180;4154;48.810;9.012;2023-08-08T01:33:19;97208.00;;;13.10
8227;BMP180;4154;48.810;9.012;2023-08-08T01:35:51;97213.00;;;13.10
8227;BMP180;4154;48.810;9.012;2023-08-08T01:38:33;97210.00;;;13.10
8227;BMP180;4154;48.810;9.012;2023-08-08T01:41:00;97213.00;;;13.00
8227;BMP180;4154;48.810;9.012;2023-08-08T01:43:26;97210.00;;;13.10
8227;BMP180;4154;48.810;9.012;2023-08-08T01:45:54;97204.00;;;13.00
8227;BMP180;4154;48.810;9.012;2023-08-08T01:48:20;97206.00;;;13.00
8227;BMP180;4154;48.810;9.012;2023-08-08T01:50:46;97212.00;;;13.10
8227;BMP180;4154;48.810;9.012;2023-08-08T01:53:12;97213.00;;;13.10
8227;BMP180;4154;48.810;9.012;2023-08-08T01:55:38;97217.00;;;13.10
8227;BMP180;4154;48.810;9.012;2023-08-08T01:58:04;97204.00;;;13.10
8227;BMP180;4154;48.810;9.012;2023-08-08T02:00:30;97213.00;;;13.10
8227;BMP180;4154;48.810;9.012;2023-08-08T02:02:55;97216.00;;;13.10
8227;BMP180;4154;48.810;9.012;2023-08-08T02:05:21;97215.00;;;13.10
8227;BMP180;4154;48.810;9.012;2023-08-08T02:07:47;97209.00;;;13.10
8227;BMP180;4154;48.810;9.012;2023-08-08T02:10:13;97199.00;;;13.10
8227;BMP180;4154;48.810;9.012;2023-08-08T02:12:39;97198.00;;;13.10
8227;BMP180;4154;48.810;9.012;2023-08-08T02:15:05;97196.00;;;13.10
8227;BMP180;4154;48.810;9.012;2023-08-08T02:17:31;97191.00;;;13.10
8227;BMP180;4154;48.810;9.012;2023-08-08T02:19:57;97194.00;;;13.10
8227;BMP180;4154;48.810;9.012;2023-08-08T02:22:23;97191.00;;;13.00
8227;BMP180;4154;48.810;9.012;2023-08-08T02:24:49;97183.00;;;13.00
8227;BMP180;4154;48.810;9.012;2023-08-08T02:27:15;97184.00;;;13.00
8227;BMP180;4154;48.810;9.012;2023-08-08T02:29:40;97182.00;;;13.00
8227;BMP180;4154;48.810;9.012;2023-08-08T02:32:06;97194.00;;;13.00
8227;BMP180;4154;48.810;9.012;2023-08-08T02:34:32;97184.00;;;12.90
8227;BMP180;4154;48.810;9.012;2023-08-08T02:36:58;97191.00;;;12.90
8227;BMP180;4154;48.810;9.012;2023-08-08T02:39:23;97198.00;;;12.80
8227;BMP180;4154;48.810;9.012;2023-08-08T02:41:49;97195.00;;;12.80
8227;BMP180;4154;48.810;9.012;2023-08-08T02:44:15;97194.00;;;12.80
8227;BMP180;4154;48.810;9.012;2023-08-08T02:46:41;97187.00;;;12.70
8227;BMP180;4154;48.810;9.012;2023-08-08T02:49:07;97185.00;;;12.70
8227;BMP180;4154;48.810;9.012;2023-08-08T02:51:33;97190.00;;;12.60
8227;BMP180;4154;48.810;9.012;2023-08-08T02:53:58;97185.00;;;12.60
8227;BMP180;4154;48.810;9.012;2023-08-08T02:56:24;97187.00;;;12.60
8227;BMP180;4154;48.810;9.012;2023-08-08T02:58:50;97196.00;;;12.60
8227;BMP180;4154;48.810;9.012;2023-08-08T03:01:17;97191.00;;;12.60
8227;BMP180;4154;48.810;9.012;2023-08-08T03:03:43;97192.00;;;12.60
8227;BMP180;4154;48.810;9.012;2023-08-08T03:06:09;97188.00;;;12.50
8227;BMP180;4154;48.810;9.012;2023-08-08T03:08:34;97181.00;;;12.50
8227;BMP180;4154;48.810;9.012;2023-08-08T03:11:00;97192.00;;;12.50
8227;BMP180;4154;48.810;9.012;2023-08-08T03:13:26;97189.00;;;12.50
8227;BMP180;4154;48.810;9.012;2023-08-08T03:15:52;97189.00;;;12.50
8227;BMP180;4154;48.810;9.012;2023-08-08T03:18:18;97183.00;;;12.40
8227;BMP180;4154;48.810;9.012;2023-08-08T03:20:44;97185.00;;;12.40
8227;BMP180;4154;48.810;9.012;2023-08-08T03:23:09;97187.00;;;12.40
8227;BMP180;4154;48.810;9.012;2023-08-08T03:25:36;97185.00;;;12.50
8227;BMP180;4154;48.810;9.012;2023-08-08T03:28:01;97193.00;;;12.50
8227;BMP180;4154;48.810;9.012;2023-08-08T03:30:27;97187.00;;;12.50
8227;BMP180;4154;48.810;9.012;2023-08-08T03:32:53;97199.00;;;12.50
8227;BMP180;4154;48.810;9.012;2023-08-08T03:35:19;97202.00;;;12.50
8227;BMP180;4154;48.810;9.012;2023-08-08T03:37:44;97188.00;;;12.50
8227;BMP180;4154;48.810;9.012;2023-08-08T03:40:11;97194.00;;;12.60
8227;BMP180;4154;48.810;9.012;2023-08-08T03:42:39;97196.00;;;12.60
8227;BMP180;4154;48.810;9.012;2023-08-08T03:45:05;97182.00;;;12.60
8227;BMP180;4154;48.810;9.012;2023-08-08T03:47:31;97189.00;;;12.60
8227;BMP180;4154;48.810;9.012;2023-08-08T03:49:57;97189.00;;;12.60
8227;BMP180;4154;48.810;9.012;2023-08-08T03:52:24;97183.00;;;12.60
8227;BMP180;4154;48.810;9.012;2023-08-08T03:54:51;97183.00;;;12.60
8227;BMP180;4154;48.810;9.012;2023-08-08T03:57:17;97184.00;;;12.60
8227;BMP180;4154;48.810;9.012;2023-08-08T03:59:43;97188.00;;;12.70
8227;BMP180;4154;48.810;9.012;2023-08-08T04:02:09;97189.00;;;12.70
8227;BMP180;4154;48.810;9.012;2023-08-08T04:04:35;97194.00;;;12.70
8227;BMP180;4154;48.810;9.012;2023-08-08T04:07:00;97194.00;;;12.80
8227;BMP180;4154;48.810;9.012;2023-08-08T04:09:26;97201.00;;;12.80
8227;BMP180;4154;48.810;9.012;2023-08-08T04:11:52;97189.00;;;12.80
8227;BMP180;4154;48.810;9.012;2023-08-08T04:14:18;97187.00;;;12.80
8227;BMP180;4154;48.810;9.012;2023-08-08T04:16:44;97193.00;;;12.80
8227;BMP180;4154;48.810;9.012;2023-08-08T04:19:10;97184.00;;;12.90
8227;BMP180;4154;48.810;9.012;2023-08-08T04:21:36;97184.00;;;12.90
8227;BMP180;4154;48.810;9.012;2023-08-08T04:24:01;97192.00;;;12.90
8227;BMP180;4154;48.810;9.012;2023-08-08T04:26:27;97180.00;;;12.90
8227;BMP180;4154;48.810;9.012;2023-08-08T04:28:53;97189.00;;;12.90
8227;BMP180;4154;48.810;9.012;2023-08-08T04:31:19;97185.00;;;12.90
8227;BMP180;4154;48.810;9.012;2023-08-08T04:33:45;97191.00;;;12.90
8227;BMP180;4154;48.810;9.012;2023-08-08T04:36:10;97188.00;;;12.90
8227;BMP180;4154;48.810;9.012;2023-08-08T04:38:37;97182.00;;;12.90
8227;BMP180;4154;48.810;9.012;2023-08-08T04:41:02;97191.00;;;12.90
8227;BMP180;4154;48.810;9.012;2023-08-08T04:43:28;97196.00;;;12.90
8227;BMP180;4154;48.810;9.012;2023-08-08T04:45:54;97191.00;;;12.90
8227;BMP180;4154;48.810;9.012;2023-08-08T04:48:20;97190.00;;;12.80
8227;BMP180;4154;48.810;9.012;2023-08-08T04:50:47;97195.00;;;12.90
8227;BMP180;4154;48.810;9.012;2023-08-08T04:53:12;97192.00;;;12.90
8227;BMP180;4154;48.810;9.012;2023-08-08T04:55:38;97188.00;;;12.90
8227;BMP180;4154;48.810;9.012;2023-08-08T04:58:05;97196.00;;;12.90
8227;BMP180;4154;48.810;9.012;2023-08-08T05:00:30;97194.00;;;12.90
8227;BMP180;4154;48.810;9.012;2023-08-08T05:02:56;97194.00;;;12.90
8227;BMP180;4154;48.810;9.012;2023-08-08T05:05:22;97190.00;;;12.90
8227;BMP180;4154;48.810;9.012;2023-08-08T05:07:48;97190.00;;;12.90
8227;BMP180;4154;48.810;9.012;2023-08-08T05:10:13;97191.00;;;12.90
8227;BMP180;4154;48.810;9.012;2023-08-08T05:12:39;97190.00;;;12.90
8227;BMP180;4154;48.810;9.012;2023-08-08T05:15:05;97186.00;;;12.90
8227;BMP180;4154;48.810;9.012;2023-08-08T05:17:31;97185.00;;;12.90
8227;BMP180;4154;48.810;9.012;2023-08-08T05:19:59;97187.00;;;13.00
8227;BMP180;4154;48.810;9.012;2023-08-08T05:22:26;97189.00;;;13.00
8227;BMP180;4154;48.810;9.012;2023-08-08T05:24:52;97188.00;;;13.10
8227;BMP180;4154;48.810;9.012;2023-08-08T05:27:18;97183.00;;;13.10
8227;BMP180;4154;48.810;9.012;2023-08-08T05:29:43;97183.00;;;13.10
8227;BMP180;4154;48.810;9.012;2023-08-08T05:32:09;97182.00;;;13.20
8227;BMP180;4154;48.810;9.012;2023-08-08T05:34:35;97188.00;;;13.20
8227;BMP180;4154;48.810;9.012;2023-08-08T05:37:01;97189.00;;;13.30
8227;BMP180;4154;48.810;9.012;2023-08-08T05:39:27;97196.00;;;13.30
8227;BMP180;4154;48.810;9.012;2023-08-08T05:41:53;97186.00;;;13.40
8227;BMP180;4154;48.810;9.012;2023-08-08T05:44:18;97195.00;;;13.40
8227;BMP180;4154;48.810;9.012;2023-08-08T05:46:44;97193.00;;;13.50
8227;BMP180;4154;48.810;9.012;2023-08-08T05:49:10;97186.00;;;13.50
8227;BMP180;4154;48.810;9.012;2023-08-08T05:51:36;97187.00;;;13.50
8227;BMP180;4154;48.810;9.012;2023-08-08T05:54:02;97191.00;;;13.60
8227;BMP180;4154;48.810;9.012;2023-08-08T05:56:35;97185.00;;;13.60
8227;BMP180;4154;48.810;9.012;2023-08-08T05:59:02;97188.00;;;13.70
8227;BMP180;4154;48.810;9.012;2023-08-08T06:01:28;97193.00;;;13.70
8227;BMP180;4154;48.810;9.012;2023-08-08T06:03:54;97198.00;;;13.80
8227;BMP180;4154;48.810;9.012;2023-08-08T06:06:20;97197.00;;;13.80
8227;BMP180;4154;48.810;9.012;2023-08-08T06:08:46;97197.00;;;13.90
8227;BMP180;4154;48.810;9.012;2023-08-08T06:11:12;97194.00;;;13.90
8227;BMP180;4154;48.810;9.012;2023-08-08T06:13:38;97189.00;;;14.00
8227;BMP180;4154;48.810;9.012;2023-08-08T06:16:04;97183.00;;;14.00
8227;BMP180;4154;48.810;9.012;2023-08-08T06:18:33;97195.00;;;14.10
8227;BMP180;4154;48.810;9.012;2023-08-08T06:20:59;97200.00;;;14.20
8227;BMP180;4154;48.810;9.012;2023-08-08T06:23:25;97202.00;;;14.20
8227;BMP180;4154;48.810;9.012;2023-08-08T06:25:51;97203.00;;;14.20
8227;BMP180;4154;48.810;9.012;2023-08-08T06:28:17;97197.00;;;14.30
8227;BMP180;4154;48.810;9.012;2023-08-08T06:30:42;97198.00;;;14.30
8227;BMP180;4154;48.810;9.012;2023-08-08T06:33:08;97204.00;;;14.30
8227;BMP180;4154;48.810;9.012;2023-08-08T06:35:34;97201.00;;;14.40
8227;BMP180;4154;48.810;9.012;2023-08-08T06:38:00;97198.00;;;14.40
8227;BMP180;4154;48.810;9.012;2023-08-08T06:40:26;97200.00;;;14.50
8227;BMP180;4154;48.810;9.012;2023-08-08T06:42:52;97196.00;;;14.50
8227;BMP180;4154;48.810;9.012;2023-08-08T06:45:18;97197.00;;;14.50
8227;BMP180;4154;48.810;9.012;2023-08-08T06:47:45;97194.00;;;14.60
8227;BMP180;4154;48.810;9.012;2023-08-08T06:50:11;97200.00;;;14.60
8227;BMP180;4154;48.810;9.012;2023-08-08T06:52:37;97188.00;;;14.70
8227;BMP180;4154;48.810;9.012;2023-08-08T06:55:03;97186.00;;;14.70
8227;BMP180;4154;48.810;9.012;2023-08-08T06:57:33;97181.00;;;14.70
8227;BMP180;4154;48.810;9.012;2023-08-08T06:59:59;97193.00;;;14.80
8227;BMP180;4154;48.810;9.012;2023-08-08T07:02:24;97186.00;;;14.90
8227;BMP180;4154;48.810;9.012;2023-08-08T07:04:50;97184.00;;;15.00
8227;BMP180;4154;48.810;9.012;2023-08-08T07:07:17;97196.00;;;15.00
8227;BMP180;4154;48.810;9.012;2023-08-08T07:09:43;97189.00;;;15.10
8227;BMP180;4154;48.810;9.012;2023-08-08T07:12:09;97187.00;;;15.10
8227;BMP180;4154;48.810;9.012;2023-08-08T07:14:35;97193.00;;;15.20
8227;BMP180;4154;48.810;9.012;2023-08-08T07:17:01;97184.00;;;15.20
8227;BMP180;4154;48.810;9.012;2023-08-08T07:19:28;97196.00;;;15.30
8227;BMP180;4154;48.810;9.012;2023-08-08T07:21:54;97184.00;;;15.30
8227;BMP180;4154;48.810;9.012;2023-08-08T07:24:20;97189.00;;;15.40
8227;BMP180;4154;48.810;9.012;2023-08-08T07:26:46;97182.00;;;15.50
8227;BMP180;4154;48.810;9.012;2023-08-08T07:29:12;97181.00;;;15.50
8227;BMP180;4154;48.810;9.012;2023-08-08T07:31:39;97174.00;;;15.60
8227;BMP180;4154;48.810;9.012;2023-08-08T07:34:05;97187.00;;;15.60
8227;BMP180;4154;48.810;9.012;2023-08-08T07:36:31;97182.00;;;15.70
8227;BMP180;4154;48.810;9.012;2023-08-08T07:38:57;97184.00;;;15.80
8227;BMP180;4154;48.810;9.012;2023-08-08T07:41:26;97185.00;;;15.90
8227;BMP180;4154;48.810;9.012;2023-08-08T07:43:53;97171.00;;;16.00
8227;BMP180;4154;48.810;9.012;2023-08-08T07:46:18;97179.00;;;16.10
8227;BMP180;4154;48.810;9.012;2023-08-08T07:48:44;97176.00;;;16.10
8227;BMP180;4154;48.810;9.012;2023-08-08T07:51:10;97176.00;;;16.20
8227;BMP180;4154;48.810;9.012;2023-08-08T07:53:36;97180.00;;;16.20
8227;BMP180;4154;48.810;9.012;2023-08-08T07:56:02;97181.00;;;16.40
8227;BMP180;4154;48.810;9.012;2023-08-08T07:58:28;97175.00;;;16.40
8227;BMP180;4154;48.810;9.012;2023-08-08T08:00:55;97182.00;;;16.40
8227;BMP180;4154;48.810;9.012;2023-08-08T08:03:21;97177.00;;;16.50
8227;BMP180;4154;48.810;9.012;2023-08-08T08:05:47;97186.00;;;16.40
8227;BMP180;4154;48.810;9.012;2023-08-08T08:08:13;97173.00;;;16.50
8227;BMP180;4154;48.810;9.012;2023-08-08T08:10:39;97182.00;;;16.60
8227;BMP180;4154;48.810;9.012;2023-08-08T08:13:05;97181.00;;;16.50
8227;BMP180;4154;48.810;9.012;2023-08-08T08:15:31;97183.00;;;16.60
8227;BMP180;4154;48.810;9.012;2023-08-08T08:17:58;97176.00;;;16.60
8227;BMP180;4154;48.810;9.012;2023-08-08T08:20:24;97176.00;;;16.60
8227;BMP180;4154;48.810;9.012;2023-08-08T08:22:51;97170.00;;;16.60
8227;BMP180;4154;48.810;9.012;2023-08-08T08:25:16;97178.00;;;16.70
8227;BMP180;4154;48.810;9.012;2023-08-08T08:27:42;97176.00;;;16.70
8227;BMP180;4154;48.810;9.012;2023-08-08T08:30:08;97170.00;;;16.70
8227;BMP180;4154;48.810;9.012;2023-08-08T08:32:39;97178.00;;;16.80
8227;BMP180;4154;48.810;9.012;2023-08-08T08:35:06;97184.00;;;16.90
8227;BMP180;4154;48.810;9.012;2023-08-08T08:37:33;97172.00;;;17.00
8227;BMP180;4154;48.810;9.012;2023-08-08T08:40:00;97174.00;;;17.00
8227;BMP180;4154;48.810;9.012;2023-08-08T08:42:27;97160.00;;;17.00
8227;BMP180;4154;48.810;9.012;2023-08-08T08:44:58;97155.00;;;17.10
8227;BMP180;4154;48.810;9.012;2023-08-08T08:47:25;97165.00;;;17.10
8227;BMP180;4154;48.810;9.012;2023-08-08T08:49:52;97161.00;;;17.10
8227;BMP180;4154;48.810;9.012;2023-08-08T08:52:18;97166.00;;;17.20
8227;BMP180;4154;48.810;9.012;2023-08-08T08:54:44;97158.00;;;17.30
8227;BMP180;4154;48.810;9.012;2023-08-08T08:57:11;97154.00;;;17.40
8227;BMP180;4154;48.810;9.012;2023-08-08T08:59:37;97149.00;;;17.50
8227;BMP180;4154;48.810;9.012;2023-08-08T09:02:03;97152.00;;;17.50
8227;BMP180;4154;48.810;9.012;2023-08-08T09:04:30;97155.00;;;17.60
8227;BMP180;4154;48.810;9.012;2023-08-08T09:06:57;97149.00;;;17.80
8227;BMP180;4154;48.810;9.012;2023-08-08T09:09:23;97154.00;;;17.90
8227;BMP180;4154;48.810;9.012;2023-08-08T09:11:53;97150.00;;;17.90
8227;BMP180;4154;48.810;9.012;2023-08-08T09:14:25;97148.00;;;17.90
8227;BMP180;4154;48.810;9.012;2023-08-08T09:16:53;97156.00;;;17.80
8227;BMP180;4154;48.810;9.012;2023-08-08T09:19:21;97155.00;;;17.90
8227;BMP180;4154;48.810;9.012;2023-08-08T09:21:47;97150.00;;;17.90
8227;BMP180;4154;48.810;9.012;2023-08-08T09:24:14;97153.00;;;18.00
8227;BMP180;4154;48.810;9.012;2023-08-08T09:26:41;97145.00;;;18.00
8227;BMP180;4154;48.810;9.012;2023-08-08T09:29:09;97153.00;;;18.00
8227;BMP180;4154;48.810;9.012;2023-08-08T09:31:36;97149.00;;;18.10
8227;BMP180;4154;48.810;9.012;2023-08-08T09:34:04;97143.00;;;18.10
8227;BMP180;4154;48.810;9.012;2023-08-08T09:36:30;97139.00;;;18.10
8227;BMP180;4154;48.810;9.012;2023-08-08T09:38:56;97135.00;;;18.20
8227;BMP180;4154;48.810;9.012;2023-08-08T09:41:23;97139.00;;;18.20
8227;BMP180;4154;48.810;9.012;2023-08-08T09:43:51;97139.00;;;18.30
8227;BMP180;4154;48.810;9.012;2023-08-08T09:46:19;97137.00;;;18.40
8227;BMP180;4154;48.810;9.012;2023-08-08T09:48:46;97128.00;;;18.50
8227;BMP180;4154;48.810;9.012;2023-08-08T09:51:13;97141.00;;;18.50
8227;BMP180;4154;48.810;9.012;2023-08-08T09:53:40;97132.00;;;18.50
8227;BMP180;4154;48.810;9.012;2023-08-08T09:56:07;97138.00;;;18.50
8227;BMP180;4154;48.810;9.012;2023-08-08T09:58:34;97135.00;;;18.60
8227;BMP180;4154;48.810;9.012;2023-08-08T10:01:00;97135.00;;;18.70
8227;BMP180;4154;48.810;9.012;2023-08-08T10:03:26;97137.00;;;18.80
8227;BMP180;4154;48.810;9.012;2023-08-08T10:05:54;97146.00;;;18.80
8227;BMP180;4154;48.810;9.012;2023-08-08T10:08:20;97128.00;;;18.80
8227;BMP180;4154;48.810;9.012;2023-08-08T10:10:48;97127.00;;;18.70
8227;BMP180;4154;48.810;9.012;2023-08-08T10:13:25;97137.00;;;18.70
8227;BMP180;4154;48.810;9.012;2023-08-08T10:15:51;97122.00;;;18.70
8227;BMP180;4154;48.810;9.012;2023-08-08T10:18:21;97132.00;;;18.70
8227;BMP180;4154;48.810;9.012;2023-08-08T10:20:51;97132.00;;;18.70
8227;BMP180;4154;48.810;9.012;2023-08-08T10:23:19;97132.00;;;18.70
8227;BMP180;4154;48.810;9.012;2023-08-08T10:25:48;97123.00;;;18.70
8227;BMP180;4154;48.810;9.012;2023-08-08T10:28:20;97134.00;;;18.70
8227;BMP180;4154;48.810;9.012;2023-08-08T10:30:58;97130.00;;;18.80
8227;BMP180;4154;48.810;9.012;2023-08-08T10:33:26;97128.00;;;18.80
8227;BMP180;4154;48.810;9.012;2023-08-08T10:35:57;97141.00;;;18.80
8227;BMP180;4154;48.810;9.012;2023-08-08T10:38:24;97133.00;;;18.80
8227;BMP180;4154;48.810;9.012;2023-08-08T10:41:02;97141.00;;;18.90
8227;BMP180;4154;48.810;9.012;2023-08-08T10:43:30;97133.00;;;18.90
8227;BMP180;4154;48.810;9.012;2023-08-08T10:46:01;97128.00;;;18.90
8227;BMP180;4154;48.810;9.012;2023-08-08T10:48:28;97128.00;;;18.90
8227;BMP180;4154;48.810;9.012;2023-08-08T10:51:00;97127.00;;;19.00
8227;BMP180;4154;48.810;9.012;2023-08-08T10:53:28;97131.00;;;19.10
8227;BMP180;4154;48.810;9.012;2023-08-08T10:56:03;97120.00;;;19.20
8227;BMP180;4154;48.810;9.012;2023-08-08T10:58:41;97124.00;;;19.20
8227;BMP180;4154;48.810;9.012;2023-08-08T11:01:08;97118.00;;;19.20
8227;BMP180;4154;48.810;9.012;2023-08-08T11:03:40;97122.00;;;19.30
8227;BMP180;4154;48.810;9.012;2023-08-08T11:06:07;97121.00;;;19.30
8227;BMP180;4154;48.810;9.012;2023-08-08T11:08:34;97123.00;;;19.20
8227;BMP180;4154;48.810;9.012;2023-08-08T11:11:02;97108.00;;;19.20
8227;BMP180;4154;48.810;9.012;2023-08-08T11:13:29;97123.00;;;19.30
8227;BMP180;4154;48.810;9.012;2023-08-08T11:15:55;97120.00;;;19.50
8227;BMP180;4154;48.810;9.012;2023-08-08T11:18:22;97126.00;;;19.60
8227;BMP180;4154;48.810;9.012;2023-08-08T11:20:49;97131.00;;;19.70
8227;BMP180;4154;48.810;9.012;2023-08-08T11:23:16;97124.00;;;19.80
8227;BMP180;4154;48.810;9.012;2023-08-08T11:25:44;97121.00;;;19.90
8227;BMP180;4154;48.810;9.012;2023-08-08T11:28:11;97117.00;;;20.00
8227;BMP180;4154;48.810;9.012;2023-08-08T11:30:42;97126.00;;;20.00
8227;BMP180;4154;48.810;9.012;2023-08-08T11:33:09;97128.00;;;20.20
8227;BMP180;4154;48.810;9.012;2023-08-08T11:35:36;97126.00;;;20.10
8227;BMP180;4154;48.810;9.012;2023-08-08T11:38:03;97132.00;;;19.90
8227;BMP180;4154;48.810;9.012;2023-08-08T11:40:30;97140.00;;;19.80
8227;BMP180;4154;48.810;9.012;2023-08-08T11:42:57;97120.00;;;19.90
8227;BMP180;4154;48.810;9.012;2023-08-08T11:45:24;97124.00;;;19.90
8227;BMP180;4154;48.810;9.012;2023-08-08T11:47:55;97129.00;;;20.10
8227;BMP180;4154;48.810;9.012;2023-08-08T11:50:24;97121.00;;;20.20
8227;BMP180;4154;48.810;9.012;2023-08-08T11:52:52;97117.00;;;20.30
8227;BMP180;4154;48.810;9.012;2023-08-08T11:55:27;97111.00;;;20.30
8227;BMP180;4154;48.810;9.012;2023-08-08T11:57:54;97101.00;;;20.50
8227;BMP180;4154;48.810;9.012;2023-08-08T12:00:27;97118.00;;;20.60
8227;BMP180;4154;48.810;9.012;2023-08-08T12:02:55;97110.00;;;20.80
8227;BMP180;4154;48.810;9.012;2023-08-08T12:05:22;97097.00;;;20.80
8227;BMP180;4154;48.810;9.012;2023-08-08T12:07:48;97106.00;;;20.80
8227;BMP180;4154;48.810;9.012;2023-08-08T12:10:19;97098.00;;;20.80
8227;BMP180;4154;48.810;9.012;2023-08-08T12:12:46;97091.00;;;20.70
8227;BMP180;4154;48.810;9.012;2023-08-08T12:15:13;97101.00;;;20.70
8227;BMP180;4154;48.810;9.012;2023-08-08T12:17:39;97096.00;;;20.70
8227;BMP180;4154;48.810;9.012;2023-08-08T12:20:07;97097.00;;;20.70
8227;BMP180;4154;48.810;9.012;2023-08-08T12:22:35;97105.00;;;20.70
8227;BMP180;4154;48.810;9.012;2023-08-08T12:25:02;97088.00;;;20.70
8227;BMP180;4154;48.810;9.012;2023-08-08T12:27:29;97093.00;;;20.70
8227;BMP180;4154;48.810;9.012;2023-08-08T12:29:56;97090.00;;;20.80
8227;BMP180;4154;48.810;9.012;2023-08-08T12:32:24;97090.00;;;20.90
8227;BMP180;4154;48.810;9.012;2023-08-08T12:34:51;97092.00;;;21.00
8227;BMP180;4154;48.810;9.012;2023-08-08T12:37:17;97087.00;;;20.90
8227;BMP180;4154;48.810;9.012;2023-08-08T12:39:43;97094.00;;;21.00
8227;BMP180;4154;48.810;9.012;2023-08-08T12:42:10;97086.00;;;20.90
8227;BMP180;4154;48.810;9.012;2023-08-08T12:44:36;97083.00;;;20.90
8227;BMP180;4154;48.810;9.012;2023-08-08T12:47:02;97085.00;;;20.90
8227;BMP180;4154;48.810;9.012;2023-08-08T12:49:28;97100.00;;;20.90
8227;BMP180;4154;48.810;9.012;2023-08-08T12:51:54;97097.00;;;20.90
8227;BMP180;4154;48.810;9.012;2023-08-08T12:54:24;97098.00;;;20.90
8227;BMP180;4154;48.810;9.012;2023-08-08T12:56:50;97103.00;;;21.10
8227;BMP180;4154;48.810;9.012;2023-08-08T12:59:16;97096.00;;;21.10
8227;BMP180;4154;48.810;9.012;2023-08-08T13:01:43;97092.00;;;21.10
8227;BMP180;4154;48.810;9.012;2023-08-08T13:04:09;97098.00;;;21.00
8227;BMP180;4154;48.810;9.012;2023-08-08T13:06:35;97111.00;;;20.80
8227;BMP180;4154;48.810;9.012;2023-08-08T13:09:01;97105.00;;;20.70
8227;BMP180;4154;48.810;9.012;2023-08-08T13:11:27;97112.00;;;20.80
8227;BMP180;4154;48.810;9.012;2023-08-08T13:13:53;97103.00;;;20.60
8227;BMP180;4154;48.810;9.012;2023-08-08T13:16:20;97100.00;;;20.60
8227;BMP180;4154;48.810;9.012;2023-08-08T13:18:46;97106.00;;;20.70
8227;BMP180;4154;48.810;9.012;2023-08-08T13:21:12;97097.00;;;20.90
8227;BMP180;4154;48.810;9.012;2023-08-08T13:23:40;97096.00;;;20.90
8227;BMP180;4154;48.810;9.012;2023-08-08T13:26:06;97100.00;;;21.00
8227;BMP180;4154;48.810;9.012;2023-08-08T13:28:32;97088.00;;;20.90
8227;BMP180;4154;48.810;9.012;2023-08-08T13:30:59;97096.00;;;21.00
8227;BMP180;4154;48.810;9.012;2023-08-08T13:33:25;97087.00;;;20.90
8227;BMP180;4154;48.810;9.012;2023-08-08T13:35:51;97075.00;;;20.90
8227;BMP180;4154;48.810;9.012;2023-08-08T13:38:17;97082.00;;;20.90
8227;BMP180;4154;48.810;9.012;2023-08-08T13:40:43;97076.00;;;20.90
8227;BMP180;4154;48.810;9.012;2023-08-08T13:43:10;97079.00;;;20.90
8227;BMP180;4154;48.810;9.012;2023-08-08T13:45:36;97088.00;;;20.90
8227;BMP180;4154;48.810;9.012;2023-08-08T13:48:02;97079.00;;;20.80
8227;BMP180;4154;48.810;9.012;2023-08-08T13:50:29;97078.00;;;20.80
8227;BMP180;4154;48.810;9.012;2023-08-08T13:52:55;97084.00;;;20.80
8227;BMP180;4154;48.810;9.012;2023-08-08T13:55:21;97085.00;;;20.90
8227;BMP180;4154;48.810;9.012;2023-08-08T13:57:47;97088.00;;;20.80
8227;BMP180;4154;48.810;9.012;2023-08-08T14:00:13;97087.00;;;20.80
8227;BMP180;4154;48.810;9.012;2023-08-08T14:02:40;97071.00;;;20.80
8227;BMP180;4154;48.810;9.012;2023-08-08T14:05:07;97075.00;;;20.80
8227;BMP180;4154;48.810;9.012;2023-08-08T14:07:36;97080.00;;;20.90
8227;BMP180;4154;48.810;9.012;2023-08-08T14:10:03;97081.00;;;21.00
8227;BMP180;4154;48.810;9.012;2023-08-08T14:12:30;97079.00;;;21.20
8227;BMP180;4154;48.810;9.012;2023-08-08T14:14:56;97082.00;;;21.10
8227;BMP180;4154;48.810;9.012;2023-08-08T14:17:22;97074.00;;;21.10
8227;BMP180;4154;48.810;9.012;2023-08-08T14:19:48;97074.00;;;21.10
8227;BMP180;4154;48.810;9.012;2023-08-08T14:22:14;97074.00;;;21.10
8227;BMP180;4154;48.810;9.012;2023-08-08T14:24:42;97082.00;;;21.00
8227;BMP180;4154;48.810;9.012;2023-08-08T14:27:09;97083.00;;;21.00
8227;BMP180;4154;48.810;9.012;2023-08-08T14:29:35;97090.00;;;21.00
8227;BMP180;4154;48.810;9.012;2023-08-08T14:32:01;97096.00;;;20.90